Share your knowledge with us! FAST registration!
Home Climate Disasters Flood Nature Places Storms Weather Weather Record Other Blogs Quizzes Diaporama Forums
Email
Password
Login |
Interestings Infos
Global Warming
Sea Ice Extent
Sea Ice Center
Co2
Future Climate Change
Live Hurricanes informations
Sea Surface Temperatures
Hurricanes Live Cams
Interactive Map
Canada Tornadoes (+500)
Cities (+ 2.5 million)
Earthquakes (+7,000)
Highest Peaks (+ 5,000)
World's Hurricanes (6,916)
Unesco Sites (959)
US Tornadoes (+ 56,000)
World's Volcanoes (+ 1,500)
World's Caves (+ 2,400)
World's Glaciers (132,699)
Weather Records
2754 Weather Stations
Highest / Lowest Temp by Country
Hurricanes
Beaufort - Saffir-Simpson
Costliest Hurricanes
Deadliest Hurricanes
Hurricane Wiki
Lowest Pressure Recorded
Number since 1848
Wind Speed Record
Tornadoes
Canada Tornadoes
Canada Stats
US Tornadoes
All USA Tornadoes statistics
Browse all US Tornadoes
Disasters
Aral Sea Pictures
Earth
Earthquake Deadliest
Earthquake Real Time
Earthquake Strongest
Richter Scale
Climate Records
Canada's Highest Peaks
Geographic
Green Houses Gases
Co2 Emissions per Capita
Rain
Temperatures Canada
United Kingdom
Temperatures USA
Demography
Cities ( + 2.5 million )
Countries Population Projections
Wiki
Wiki Climate
Aral Sea
Earth
Infographic Climat Science
Canada's Majors Tornadoes All USA Tornadoes statistics Tornadoes by States Fujita
Canadian Tornado Centre Canada Stats
US Database: Make a search to see tornadoes target and path on interactive map!
State
Fujita
Year
Month
Day
Per Page

Page 1  2  3  4  &lang=en&tid=ND">  12  13  14  15  1433 Results
Page 1

North Dakota 1424 F0 to F5 tornadoes have been reported between 1950 and today..

Tornadoes combined statistics: North Dakota
Number of Tornadoes
1424
Injured
325
Death
25
Longest Path
68.00 Mille
Total Damage
1597.864 Million
Date Time State F Injured Death Damage Crop Lenght
Mile
Width
Yards
County
Affected
1950-06-13 11:05:00 ND F3 0 0 5.000 M$ - M$ 2.00 Mi 10 Cass
1950-06-14 17:00:00 ND F3 0 0 4.000 M$ - M$ 23.70 Mi 10 Divide
1951-06-14 11:30:00 ND ? 0 0 - M$ - M$ 0.10 Mi 10 Burleigh
1951-08-14 15:00:00 ND F1 0 0 2.000 M$ - M$ 0.10 Mi 10 Hettinger
1952-06-10 17:00:00 ND ? 0 0 4.000 M$ - M$ 8.80 Mi 300 Golden Valley
1952-06-10 19:00:00 ND F2 0 0 4.000 M$ - M$ 10.10 Mi 10 Stark
1952-06-15 16:00:00 ND F3 1 0 4.000 M$ - M$ 1.70 Mi 10 Wells
1952-06-20 15:00:00 ND ? 0 0 - M$ - M$ 0.10 Mi 10 Mountrail
1952-07-01 14:00:00 ND F3 0 0 4.000 M$ - M$ 0.50 Mi 10 Richland
1952-07-01 17:30:00 ND F2 0 0 4.000 M$ - M$ 9.70 Mi 10 McKenzie
1952-07-01 18:00:00 ND F4 26 1 5.000 M$ - M$ 48.00 Mi 150 Burleigh Kidder
1952-07-09 15:00:00 ND F2 0 0 3.000 M$ - M$ 0.10 Mi 10 Grand Forks
1952-07-19 18:30:00 ND F3 0 0 3.000 M$ - M$ 7.30 Mi 10 Golden Valley
1952-07-24 19:00:00 ND F2 0 0 5.000 M$ - M$ 7.30 Mi 10 Stutsman
1953-05-29 17:00:00 ND F5 20 2 5.000 M$ - M$ 14.80 Mi 600 Morton Emmons
1953-05-29 18:00:00 ND F2 0 0 3.000 M$ - M$ 0.10 Mi 10 Richland
1953-05-29 23:00:00 ND F2 0 0 4.000 M$ - M$ 3.60 Mi 100 Cass
1953-05-30 15:00:00 ND ? 0 0 - M$ - M$ 0.10 Mi 20 Stutsman
1953-05-30 15:00:00 ND F2 0 0 4.000 M$ - M$ 5.40 Mi 10 Stutsman
1953-06-13 16:20:00 ND F2 0 0 3.000 M$ - M$ 0.10 Mi 10 Williams
1953-06-13 17:00:00 ND ? 0 0 - M$ - M$ 0.10 Mi 10 Renville
1953-06-27 14:30:00 ND F2 0 0 3.000 M$ - M$ 0.10 Mi 10 Traill
1953-07-06 20:00:00 ND F1 0 0 5.000 M$ - M$ 0.10 Mi 10 Wells
1954-06-13 17:40:00 ND F2 0 0 - M$ - M$ 0.10 Mi 10 Ward
1954-06-16 13:00:00 ND F0 0 0 - M$ - M$ 0.10 Mi 10 Grant
1954-07-06 15:00:00 ND F2 0 0 4.000 M$ - M$ 2.00 Mi 880 Wells
1954-08-06 20:00:00 ND ? 0 0 - M$ - M$ 0.10 Mi 10 Billings
1955-06-03 15:00:00 ND ? 0 0 - M$ - M$ 2.50 Mi 30 Bottineau
1955-06-29 20:15:00 ND F0 0 0 - M$ - M$ 0.10 Mi 10 Williams
1955-06-30 15:30:00 ND F2 0 0 3.000 M$ - M$ 4.10 Mi 77 Grand Forks
1955-06-30 16:00:00 ND ? 0 0 3.000 M$ - M$ 0.10 Mi 10 Cass
1955-07-01 17:10:00 ND F3 0 0 4.000 M$ - M$ 1.30 Mi 40 Emmons
1955-07-02 18:00:00 ND F4 19 2 5.000 M$ - M$ 9.10 Mi 150 Richland
1955-07-05 17:15:00 ND F4 0 0 4.000 M$ - M$ 28.00 Mi 100 Mountrail
1955-07-06 20:00:00 ND F1 0 0 3.000 M$ - M$ 7.40 Mi 17 Morton
1955-08-03 15:00:00 ND F2 0 0 3.000 M$ - M$ 0.10 Mi 10 McLean
1955-08-03 15:00:00 ND ? 0 0 3.000 M$ - M$ 0.10 Mi 10 McLean
1955-08-03 20:30:00 ND F2 0 0 5.000 M$ - M$ 1.50 Mi 10 Barnes
1955-08-10 15:00:00 ND ? 0 0 4.000 M$ - M$ 0.10 Mi 10 LaMoure
1956-05-16 15:30:00 ND ? 0 0 - M$ - M$ 0.10 Mi 10 Grand Forks
1956-06-05 18:10:00 ND F3 0 0 4.000 M$ - M$ 0.10 Mi 10 McLean
1956-06-17 18:30:00 ND F2 0 0 5.000 M$ - M$ 37.10 Mi 50 Burleigh Kidder
1956-06-18 15:15:00 ND F3 1 0 5.000 M$ - M$ 10.60 Mi 100 Mercer
1956-07-03 16:10:00 ND ? 0 0 - M$ - M$ 0.10 Mi 10 Sioux
1956-07-07 17:45:00 ND ? 0 0 - M$ - M$ 0.10 Mi 10 Cass
1956-07-12 13:30:00 ND ? 0 0 - M$ - M$ 0.10 Mi 10 Richland
1956-07-18 15:00:00 ND ? 0 0 - M$ - M$ 0.10 Mi 10 Grand Forks
1956-07-18 15:00:00 ND F0 0 0 - M$ - M$ 0.10 Mi 10 Traill
1956-08-05 15:00:00 ND ? 0 0 - M$ - M$ 0.10 Mi 10 Stutsman
1956-08-30 15:19:00 ND ? 0 0 - M$ - M$ 0.10 Mi 10 Sargent
1956-08-30 15:25:00 ND F3 8 0 5.000 M$ - M$ 5.10 Mi 60 Cass
1956-09-06 15:00:00 ND ? 0 0 3.000 M$ - M$ 0.10 Mi 10 Barnes
1956-09-15 17:00:00 ND ? 0 0 4.000 M$ - M$ 0.10 Mi 10 Bottineau
1957-04-22 18:20:00 ND F2 0 0 3.000 M$ - M$ 0.50 Mi 800 Stark
1957-05-01 17:20:00 ND ? 0 0 3.000 M$ - M$ 0.10 Mi 10 Burleigh
1957-05-01 17:45:00 ND F0 0 0 - M$ - M$ 0.10 Mi 10 Burleigh
1957-06-05 19:00:00 ND ? 0 0 3.000 M$ - M$ 0.10 Mi 10 LaMoure Ransom
1957-06-20 18:30:00 ND ? 0 0 - M$ - M$ 0.10 Mi 10 Cass
1957-06-20 18:30:00 ND F2 0 0 4.000 M$ - M$ 2.00 Mi 30 Dickey
1957-06-20 18:40:00 ND F5 103 10 7.000 M$ - M$ 27.40 Mi 500 Cass
1957-06-20 Summary ND F5 103 10 7.000 M$ - M$ 52.40 Mi 500
1957-07-11 15:56:00 ND ? 0 0 1.000 M$ - M$ 0.10 Mi 10 Grand Forks
1957-07-16 16:34:00 ND ? 0 0 - M$ - M$ 0.10 Mi 10 Williams
1957-07-16 20:00:00 ND F2 0 0 3.000 M$ - M$ 0.10 Mi 10 Burleigh
1957-07-16 21:45:00 ND F3 0 0 4.000 M$ - M$ 0.10 Mi 10 Griggs
1957-08-12 20:00:00 ND F2 0 0 4.000 M$ - M$ 0.50 Mi 33 Ransom
1957-08-14 07:15:00 ND F1 0 0 4.000 M$ - M$ 0.10 Mi 10 Wells
1958-05-30 20:00:00 ND F3 0 0 4.000 M$ - M$ 10.70 Mi 10 Benson
1958-06-21 13:30:00 ND ? 0 0 1.000 M$ - M$ 0.10 Mi 10 Rolette
1958-06-30 01:30:00 ND F2 2 0 4.000 M$ - M$ 0.10 Mi 10 Mountrail
1958-07-04 13:30:00 ND F0 0 0 1.000 M$ - M$ 0.10 Mi 10 Dickey
1958-07-13 18:38:00 ND F2 0 0 4.000 M$ - M$ 0.10 Mi 10 Sargent
1958-07-17 17:30:00 ND F0 0 0 1.000 M$ - M$ 0.10 Mi 10 Steele
1958-08-09 17:00:00 ND ? 0 0 3.000 M$ - M$ 0.10 Mi 10 Cass
1958-08-11 16:06:00 ND F3 2 0 4.000 M$ - M$ 0.10 Mi 10 Grand Forks
1958-09-06 16:30:00 ND F3 0 0 3.000 M$ - M$ 2.90 Mi 10 Barnes
1959-05-24 19:15:00 ND ? 0 0 - M$ - M$ 0.10 Mi 10 Benson
1959-06-06 19:30:00 ND F2 0 0 - M$ - M$ 0.10 Mi 10 Cavalier
1959-06-10 15:00:00 ND ? 0 0 - M$ - M$ 0.10 Mi 10 Richland
1959-06-10 21:30:00 ND F2 0 0 3.000 M$ - M$ 0.10 Mi 10 Cass
1959-07-09 15:00:00 ND ? 0 0 4.000 M$ - M$ 0.10 Mi 10 Richland
1959-08-11 17:55:00 ND ? 0 0 - M$ - M$ 0.10 Mi 10 Traill
1959-08-24 18:50:00 ND F2 1 0 - M$ - M$ 0.10 Mi 10 Stutsman
1959-08-25 17:17:00 ND F2 0 0 - M$ - M$ 1.00 Mi 10 Emmons
1959-08-28 17:20:00 ND ? 0 0 - M$ - M$ 0.10 Mi 10 Ransom
1959-08-28 17:30:00 ND ? 0 0 - M$ - M$ 0.10 Mi 10 Sheridan
1959-09-08 15:00:00 ND F1 0 0 2.000 M$ - M$ 0.10 Mi 10 McLean
1960-05-31 21:00:00 ND F2 0 0 - M$ - M$ 0.10 Mi 10 Cass
1960-06-30 19:00:00 ND ? 0 0 - M$ - M$ 0.10 Mi 10 Richland
1960-07-02 11:20:00 ND F0 0 0 - M$ - M$ 0.10 Mi 10 Burleigh
1960-07-04 16:45:00 ND F0 0 0 - M$ - M$ 0.10 Mi 10 Burleigh Kidder
1960-07-10 15:00:00 ND F2 0 0 - M$ - M$ 6.90 Mi 10 Cass
1960-07-12 16:00:00 ND F0 0 0 - M$ - M$ 0.10 Mi 10 Renville
1960-07-24 15:00:00 ND ? 0 0 3.000 M$ - M$ 0.10 Mi 10 Emmons
1960-07-27 16:00:00 ND ? 0 0 - M$ - M$ 0.10 Mi 10 Kidder
1960-08-02 14:00:00 ND ? 0 0 - M$ - M$ 0.10 Mi 10 Dunn
1960-08-02 16:00:00 ND F2 0 0 3.000 M$ - M$ 0.10 Mi 10 Stutsman
1960-08-02 17:00:00 ND F2 0 0 3.000 M$ - M$ 0.10 Mi 10 Dickey
1960-08-02 19:00:00 ND F2 1 0 1.000 M$ - M$ 0.10 Mi 10 Ward
1960-08-06 21:00:00 ND ? 0 0 3.000 M$ - M$ 0.10 Mi 10 Slope
You must register to have full access on Record Meteo
FAST registration!
Like our Facebook page to receive more news



Record Meteo is looking for Bloggers and Forum's moderators!

Record Meteo Forum Stats

Threads: 256,382
Views: 285,820
Replies: 1


Contact Us | About Us | Privacy Policy | Terms & User Agreements | Editor's team | Advertise
Canadian Tornado Centre | Tornadoespath.com | Our Datasets | POI Files

Copyright Mai 2007 | Tue Oct 17 00:41


News: 264 | View(s): 191523:)
16/12/2012: 49,944,865